createdAt,value
2023-05-14T00:10:01.216Z,16.2
2023-05-14T00:20:01.275Z,16.0
2023-05-14T00:30:01.278Z,15.7
2023-05-14T00:40:00.558Z,15.9
2023-05-14T00:50:01.250Z,15.9
2023-05-14T01:00:01.153Z,15.7
2023-05-14T01:10:01.138Z,15.7
2023-05-14T01:20:01.137Z,15.6
2023-05-14T01:30:01.305Z,15.4
2023-05-14T01:40:01.204Z,15.4
2023-05-14T01:50:01.148Z,15.3
2023-05-14T02:00:01.189Z,15.4
2023-05-14T02:10:01.142Z,15.6
2023-05-14T02:20:01.140Z,15.8
2023-05-14T02:30:01.513Z,15.7
2023-05-14T02:40:01.158Z,15.8
2023-05-14T02:50:01.143Z,15.6
2023-05-14T03:00:01.223Z,15.4
2023-05-14T03:10:01.168Z,15.4
2023-05-14T03:20:01.254Z,15.6
2023-05-14T03:30:01.153Z,15.7
2023-05-14T03:40:01.154Z,15.3
2023-05-14T03:50:00.545Z,15.2
2023-05-14T04:00:04.159Z,15.3
2023-05-14T04:10:03.441Z,15.3
2023-05-14T04:20:01.212Z,15.1
2023-05-14T04:30:01.183Z,14.9
2023-05-14T04:40:01.192Z,14.8
2023-05-14T04:50:01.168Z,15.0
2023-05-14T05:00:01.175Z,15.5
2023-05-14T05:10:01.192Z,15.6
2023-05-14T05:20:01.138Z,15.6
2023-05-14T05:30:01.174Z,15.9
2023-05-14T05:40:01.175Z,15.7
2023-05-14T05:50:01.113Z,16.1
2023-05-14T06:00:01.231Z,16.7
2023-05-14T06:10:01.215Z,17.0
2023-05-14T06:20:01.245Z,17.2
2023-05-14T06:30:01.146Z,17.3
2023-05-14T06:40:01.208Z,18.0
2023-05-14T06:50:01.134Z,18.2
2023-05-14T07:00:03.120Z,18.3
2023-05-14T07:10:01.140Z,18.5
2023-05-14T07:20:01.173Z,19.4
2023-05-14T07:30:01.197Z,19.5
2023-05-14T07:40:01.140Z,19.3
2023-05-14T07:50:01.130Z,20.0
2023-05-14T08:00:01.188Z,20.8
2023-05-14T08:10:01.118Z,20.9
2023-05-14T08:20:01.157Z,22.0
2023-05-14T08:30:01.205Z,22.1
2023-05-14T08:50:01.154Z,22.7
2023-05-14T09:00:01.243Z,22.5
2023-05-14T09:10:01.177Z,22.6
2023-05-14T09:20:01.239Z,23.6
2023-05-14T09:30:01.178Z,23.1
2023-05-14T09:40:01.177Z,23.1
2023-05-14T09:50:01.207Z,24.5
2023-05-14T10:00:01.367Z,24.1
2023-05-14T10:10:01.167Z,23.1
2023-05-14T10:20:01.252Z,23.0
2023-05-14T10:30:01.198Z,22.2
2023-05-14T10:40:01.238Z,22.4
2023-05-14T10:50:01.173Z,22.3
2023-05-14T11:00:01.350Z,22.2
2023-05-14T11:10:01.134Z,22.5
2023-05-14T11:20:01.211Z,22.3
2023-05-14T11:30:01.176Z,21.4
2023-05-14T11:40:01.187Z,22.4
2023-05-14T11:50:01.130Z,23.0
2023-05-14T12:00:01.189Z,21.8
2023-05-14T12:10:00.557Z,22.4
2023-05-14T12:20:01.135Z,23.2
2023-05-14T12:30:09.614Z,23.5
2023-05-14T12:40:01.224Z,24.0
2023-05-14T12:50:01.175Z,23.8
2023-05-14T13:00:01.286Z,23.4
2023-05-14T13:10:01.263Z,23.1
2023-05-14T13:20:01.232Z,23.1
2023-05-14T13:30:01.376Z,22.2
2023-05-14T13:40:01.385Z,22.6
2023-05-14T13:50:01.126Z,22.6
2023-05-14T14:00:01.193Z,22.3
2023-05-14T14:10:01.174Z,22.3
2023-05-14T14:20:01.120Z,22.5
2023-05-14T14:30:01.232Z,22.1
2023-05-14T14:50:01.119Z,23.1
2023-05-14T15:00:02.425Z,24.5
2023-05-14T15:10:01.189Z,24.3
2023-05-14T15:20:01.302Z,23.4
2023-05-14T15:30:01.192Z,24.9
2023-05-14T15:40:01.163Z,24.1
2023-05-14T15:50:01.229Z,24.0
2023-05-14T16:00:01.980Z,22.5
2023-05-14T16:10:01.192Z,23.1
2023-05-14T16:20:01.240Z,23.2
2023-05-14T16:30:01.210Z,23.6
2023-05-14T16:40:01.253Z,23.8
2023-05-14T16:50:01.190Z,24.4
2023-05-14T17:00:01.354Z,25.4
2023-05-14T17:10:01.276Z,23.4
2023-05-14T17:20:01.150Z,23.3
2023-05-14T17:30:01.203Z,22.7
2023-05-14T17:40:01.195Z,21.7
2023-05-14T17:50:01.209Z,21.7
2023-05-14T18:00:01.164Z,21.1
2023-05-14T18:10:01.232Z,21.2
2023-05-14T18:20:01.229Z,20.7
2023-05-14T18:30:01.157Z,20.7
2023-05-14T18:40:01.228Z,20.8
2023-05-14T18:50:01.232Z,20.6
2023-05-14T19:00:01.300Z,20.4
2023-05-14T19:10:01.209Z,20.4
2023-05-14T19:20:01.259Z,20.0
2023-05-14T19:30:01.174Z,19.8
2023-05-14T19:40:01.266Z,19.5
2023-05-14T19:50:01.155Z,19.3
2023-05-14T20:00:01.209Z,18.9
2023-05-14T20:10:01.188Z,18.4
2023-05-14T20:20:01.260Z,18.7
2023-05-14T20:30:01.157Z,18.4
2023-05-14T20:40:01.354Z,18.3
2023-05-14T20:50:01.179Z,18.1
2023-05-14T21:00:01.251Z,18.0
2023-05-14T21:10:01.193Z,18.1
2023-05-14T21:20:01.237Z,18.2
2023-05-14T21:30:01.164Z,18.1
2023-05-14T21:40:01.255Z,17.9
2023-05-14T21:50:01.142Z,17.8
2023-05-14T22:00:01.209Z,17.5
2023-05-14T22:10:01.173Z,17.2
2023-05-14T22:20:01.267Z,17.3
2023-05-14T22:30:01.218Z,16.9
2023-05-14T22:40:01.191Z,16.9
2023-05-14T22:50:01.249Z,16.7
2023-05-14T23:00:01.371Z,16.5
2023-05-14T23:10:01.163Z,16.4
2023-05-14T23:20:01.170Z,16.1
2023-05-14T23:30:01.162Z,15.8
2023-05-14T23:40:01.160Z,15.7
2023-05-14T23:50:01.198Z,15.6
